sensor_id;sensor_type;location;lat;lon;timestamp;P1;durP1;ratioP1;P2;durP2;ratioP2
64426;SDS011;50772;51.482;-0.580;2023-06-14T00:00:34;3.10;;;2.88;;
64426;SDS011;50772;51.482;-0.580;2023-06-14T00:03:00;2.73;;;2.63;;
64426;SDS011;50772;51.482;-0.580;2023-06-14T00:05:25;3.42;;;2.67;;
64426;SDS011;50772;51.482;-0.580;2023-06-14T00:07:51;2.97;;;2.78;;
64426;SDS011;50772;51.482;-0.580;2023-06-14T00:10:18;3.08;;;2.70;;
64426;SDS011;50772;51.482;-0.580;2023-06-14T00:12:43;3.20;;;2.40;;
64426;SDS011;50772;51.482;-0.580;2023-06-14T00:15:09;2.95;;;2.75;;
64426;SDS011;50772;51.482;-0.580;2023-06-14T00:17:34;2.72;;;2.58;;
64426;SDS011;50772;51.482;-0.580;2023-06-14T00:20:01;2.75;;;2.47;;
64426;SDS011;50772;51.482;-0.580;2023-06-14T00:22:28;2.45;;;2.25;;
64426;SDS011;50772;51.482;-0.580;2023-06-14T00:24:53;2.55;;;2.35;;
64426;SDS011;50772;51.482;-0.580;2023-06-14T00:27:18;2.72;;;2.50;;
64426;SDS011;50772;51.482;-0.580;2023-06-14T00:29:44;2.47;;;2.30;;
64426;SDS011;50772;51.482;-0.580;2023-06-14T00:32:09;3.05;;;2.30;;
64426;SDS011;50772;51.482;-0.580;2023-06-14T00:34:34;2.70;;;2.50;;
64426;SDS011;50772;51.482;-0.580;2023-06-14T00:37:00;2.65;;;2.55;;
64426;SDS011;50772;51.482;-0.580;2023-06-14T00:39:25;3.17;;;2.88;;
64426;SDS011;50772;51.482;-0.580;2023-06-14T00:41:50;3.00;;;2.70;;
64426;SDS011;50772;51.482;-0.580;2023-06-14T00:44:16;3.20;;;2.90;;
64426;SDS011;50772;51.482;-0.580;2023-06-14T00:46:41;2.70;;;2.50;;
64426;SDS011;50772;51.482;-0.580;2023-06-14T00:49:06;3.93;;;2.87;;
64426;SDS011;50772;51.482;-0.580;2023-06-14T00:51:31;3.78;;;3.15;;
64426;SDS011;50772;51.482;-0.580;2023-06-14T00:53:57;6.67;;;3.00;;
64426;SDS011;50772;51.482;-0.580;2023-06-14T00:56:22;3.97;;;3.00;;
64426;SDS011;50772;51.482;-0.580;2023-06-14T00:58:48;3.17;;;2.67;;
64426;SDS011;50772;51.482;-0.580;2023-06-14T01:01:13;6.90;;;2.83;;
64426;SDS011;50772;51.482;-0.580;2023-06-14T01:03:39;5.47;;;2.92;;
64426;SDS011;50772;51.482;-0.580;2023-06-14T01:11:18;4.25;;;3.17;;
64426;SDS011;50772;51.482;-0.580;2023-06-14T01:16:12;4.77;;;3.40;;
64426;SDS011;50772;51.482;-0.580;2023-06-14T01:18:37;3.53;;;3.22;;
64426;SDS011;50772;51.482;-0.580;2023-06-14T01:21:02;5.63;;;3.05;;
64426;SDS011;50772;51.482;-0.580;2023-06-14T01:23:31;6.28;;;3.13;;
64426;SDS011;50772;51.482;-0.580;2023-06-14T01:25:57;3.40;;;3.13;;
64426;SDS011;50772;51.482;-0.580;2023-06-14T01:28:22;3.90;;;3.08;;
64426;SDS011;50772;51.482;-0.580;2023-06-14T01:30:48;4.55;;;3.65;;
64426;SDS011;50772;51.482;-0.580;2023-06-14T01:33:15;5.32;;;3.38;;
64426;SDS011;50772;51.482;-0.580;2023-06-14T01:35:44;3.75;;;3.45;;
64426;SDS011;50772;51.482;-0.580;2023-06-14T01:38:09;3.60;;;3.30;;
64426;SDS011;50772;51.482;-0.580;2023-06-14T01:40:35;8.35;;;3.65;;
64426;SDS011;50772;51.482;-0.580;2023-06-14T01:43:00;3.40;;;3.10;;
64426;SDS011;50772;51.482;-0.580;2023-06-14T01:45:26;2.97;;;2.78;;
64426;SDS011;50772;51.482;-0.580;2023-06-14T01:47:52;4.13;;;3.00;;
64426;SDS011;50772;51.482;-0.580;2023-06-14T01:50:18;3.47;;;3.10;;
64426;SDS011;50772;51.482;-0.580;2023-06-14T01:52:44;4.85;;;2.97;;
64426;SDS011;50772;51.482;-0.580;2023-06-14T01:55:09;3.05;;;2.80;;
64426;SDS011;50772;51.482;-0.580;2023-06-14T01:57:34;2.80;;;2.60;;
64426;SDS011;50772;51.482;-0.580;2023-06-14T02:00:00;3.10;;;2.90;;
64426;SDS011;50772;51.482;-0.580;2023-06-14T02:02:26;2.80;;;2.50;;
64426;SDS011;50772;51.482;-0.580;2023-06-14T02:04:51;2.85;;;2.58;;
64426;SDS011;50772;51.482;-0.580;2023-06-14T02:07:17;5.50;;;2.97;;
64426;SDS011;50772;51.482;-0.580;2023-06-14T02:09:42;2.80;;;2.60;;
64426;SDS011;50772;51.482;-0.580;2023-06-14T02:12:08;3.57;;;2.80;;
64426;SDS011;50772;51.482;-0.580;2023-06-14T02:14:33;2.72;;;2.53;;
64426;SDS011;50772;51.482;-0.580;2023-06-14T02:16:58;4.50;;;2.23;;
64426;SDS011;50772;51.482;-0.580;2023-06-14T02:19:26;3.00;;;2.47;;
64426;SDS011;50772;51.482;-0.580;2023-06-14T02:21:51;2.72;;;2.53;;
64426;SDS011;50772;51.482;-0.580;2023-06-14T02:24:16;2.72;;;2.50;;
64426;SDS011;50772;51.482;-0.580;2023-06-14T02:26:41;2.97;;;2.70;;
64426;SDS011;50772;51.482;-0.580;2023-06-14T02:29:07;4.13;;;2.80;;
64426;SDS011;50772;51.482;-0.580;2023-06-14T02:31:34;6.57;;;2.80;;
64426;SDS011;50772;51.482;-0.580;2023-06-14T02:34:00;5.40;;;2.88;;
64426;SDS011;50772;51.482;-0.580;2023-06-14T02:36:25;6.73;;;3.00;;
64426;SDS011;50772;51.482;-0.580;2023-06-14T02:38:51;5.75;;;3.00;;
64426;SDS011;50772;51.482;-0.580;2023-06-14T02:41:19;3.92;;;2.80;;
64426;SDS011;50772;51.482;-0.580;2023-06-14T02:43:44;3.03;;;2.77;;
64426;SDS011;50772;51.482;-0.580;2023-06-14T02:46:09;4.27;;;2.93;;
64426;SDS011;50772;51.482;-0.580;2023-06-14T02:48:34;5.22;;;3.30;;
64426;SDS011;50772;51.482;-0.580;2023-06-14T02:50:59;4.87;;;3.30;;
64426;SDS011;50772;51.482;-0.580;2023-06-14T02:53:25;4.70;;;3.17;;
64426;SDS011;50772;51.482;-0.580;2023-06-14T02:55:50;6.32;;;3.15;;
64426;SDS011;50772;51.482;-0.580;2023-06-14T02:58:17;7.60;;;3.20;;
64426;SDS011;50772;51.482;-0.580;2023-06-14T03:00:43;3.47;;;3.20;;
64426;SDS011;50772;51.482;-0.580;2023-06-14T03:03:08;3.40;;;3.20;;
64426;SDS011;50772;51.482;-0.580;2023-06-14T03:05:43;6.70;;;3.28;;
64426;SDS011;50772;51.482;-0.580;2023-06-14T03:08:11;5.75;;;3.33;;
64426;SDS011;50772;51.482;-0.580;2023-06-14T03:10:41;7.97;;;3.75;;
64426;SDS011;50772;51.482;-0.580;2023-06-14T03:13:08;10.10;;;3.38;;
64426;SDS011;50772;51.482;-0.580;2023-06-14T03:15:33;4.77;;;3.40;;
64426;SDS011;50772;51.482;-0.580;2023-06-14T03:17:58;5.72;;;3.65;;
64426;SDS011;50772;51.482;-0.580;2023-06-14T03:20:24;5.55;;;3.38;;
64426;SDS011;50772;51.482;-0.580;2023-06-14T03:22:53;7.53;;;3.30;;
64426;SDS011;50772;51.482;-0.580;2023-06-14T03:25:22;4.30;;;2.92;;
64426;SDS011;50772;51.482;-0.580;2023-06-14T03:27:47;3.83;;;3.60;;
64426;SDS011;50772;51.482;-0.580;2023-06-14T03:30:12;5.07;;;3.47;;
64426;SDS011;50772;51.482;-0.580;2023-06-14T03:32:38;5.10;;;3.63;;
64426;SDS011;50772;51.482;-0.580;2023-06-14T03:35:03;4.72;;;3.40;;
64426;SDS011;50772;51.482;-0.580;2023-06-14T03:37:28;4.55;;;3.78;;
64426;SDS011;50772;51.482;-0.580;2023-06-14T03:39:53;8.77;;;4.03;;
64426;SDS011;50772;51.482;-0.580;2023-06-14T03:42:19;4.13;;;3.42;;
64426;SDS011;50772;51.482;-0.580;2023-06-14T03:44:44;3.60;;;3.30;;
64426;SDS011;50772;51.482;-0.580;2023-06-14T03:47:09;5.43;;;3.65;;
64426;SDS011;50772;51.482;-0.580;2023-06-14T03:49:35;4.37;;;3.17;;
64426;SDS011;50772;51.482;-0.580;2023-06-14T03:52:00;5.70;;;3.30;;
64426;SDS011;50772;51.482;-0.580;2023-06-14T03:54:27;3.67;;;3.35;;
64426;SDS011;50772;51.482;-0.580;2023-06-14T03:56:53;8.02;;;3.95;;
64426;SDS011;50772;51.482;-0.580;2023-06-14T03:59:18;5.55;;;3.15;;
64426;SDS011;50772;51.482;-0.580;2023-06-14T04:01:44;4.88;;;3.50;;
64426;SDS011;50772;51.482;-0.580;2023-06-14T04:04:11;3.88;;;3.40;;
64426;SDS011;50772;51.482;-0.580;2023-06-14T04:06:37;3.50;;;3.20;;
64426;SDS011;50772;51.482;-0.580;2023-06-14T04:09:02;9.55;;;3.85;;
64426;SDS011;50772;51.482;-0.580;2023-06-14T04:11:29;5.45;;;3.47;;
64426;SDS011;50772;51.482;-0.580;2023-06-14T04:13:54;3.40;;;3.10;;
64426;SDS011;50772;51.482;-0.580;2023-06-14T04:16:21;3.50;;;3.20;;
64426;SDS011;50772;51.482;-0.580;2023-06-14T04:18:46;3.50;;;3.20;;
64426;SDS011;50772;51.482;-0.580;2023-06-14T04:21:13;7.22;;;3.47;;
64426;SDS011;50772;51.482;-0.580;2023-06-14T04:23:38;5.47;;;3.65;;
64426;SDS011;50772;51.482;-0.580;2023-06-14T04:26:03;5.37;;;3.03;;
64426;SDS011;50772;51.482;-0.580;2023-06-14T04:28:29;5.88;;;3.33;;
64426;SDS011;50772;51.482;-0.580;2023-06-14T04:30:55;5.30;;;3.00;;
64426;SDS011;50772;51.482;-0.580;2023-06-14T04:33:20;4.80;;;2.92;;
64426;SDS011;50772;51.482;-0.580;2023-06-14T04:35:45;4.90;;;3.10;;
64426;SDS011;50772;51.482;-0.580;2023-06-14T04:38:12;4.95;;;2.92;;
64426;SDS011;50772;51.482;-0.580;2023-06-14T04:40:37;3.30;;;3.08;;
64426;SDS011;50772;51.482;-0.580;2023-06-14T04:43:07;5.28;;;3.15;;
64426;SDS011;50772;51.482;-0.580;2023-06-14T04:45:33;3.90;;;3.08;;
64426;SDS011;50772;51.482;-0.580;2023-06-14T04:47:58;3.13;;;2.90;;
64426;SDS011;50772;51.482;-0.580;2023-06-14T04:50:24;3.30;;;3.10;;
64426;SDS011;50772;51.482;-0.580;2023-06-14T04:52:49;3.40;;;3.00;;
64426;SDS011;50772;51.482;-0.580;2023-06-14T04:55:16;5.00;;;3.05;;
64426;SDS011;50772;51.482;-0.580;2023-06-14T04:57:41;6.00;;;3.17;;
64426;SDS011;50772;51.482;-0.580;2023-06-14T05:00:07;3.15;;;2.88;;
64426;SDS011;50772;51.482;-0.580;2023-06-14T05:02:32;2.92;;;2.72;;
64426;SDS011;50772;51.482;-0.580;2023-06-14T05:04:57;3.50;;;3.20;;
64426;SDS011;50772;51.482;-0.580;2023-06-14T05:07:24;3.13;;;2.90;;
64426;SDS011;50772;51.482;-0.580;2023-06-14T05:09:49;7.95;;;2.90;;
64426;SDS011;50772;51.482;-0.580;2023-06-14T05:12:14;3.53;;;3.07;;
64426;SDS011;50772;51.482;-0.580;2023-06-14T05:14:43;3.85;;;2.92;;
64426;SDS011;50772;51.482;-0.580;2023-06-14T05:17:08;3.00;;;2.80;;
64426;SDS011;50772;51.482;-0.580;2023-06-14T05:19:34;3.28;;;2.85;;
64426;SDS011;50772;51.482;-0.580;2023-06-14T05:21:59;6.30;;;3.10;;
64426;SDS011;50772;51.482;-0.580;2023-06-14T05:24:24;3.40;;;3.10;;
64426;SDS011;50772;51.482;-0.580;2023-06-14T05:26:50;5.68;;;3.50;;
64426;SDS011;50772;51.482;-0.580;2023-06-14T05:29:15;5.82;;;3.35;;
64426;SDS011;50772;51.482;-0.580;2023-06-14T05:31:40;5.30;;;3.03;;
64426;SDS011;50772;51.482;-0.580;2023-06-14T05:34:06;5.73;;;4.17;;
64426;SDS011;50772;51.482;-0.580;2023-06-14T05:36:31;14.98;;;3.33;;
64426;SDS011;50772;51.482;-0.580;2023-06-14T05:38:56;3.83;;;3.15;;
64426;SDS011;50772;51.482;-0.580;2023-06-14T05:41:25;5.13;;;3.28;;
64426;SDS011;50772;51.482;-0.580;2023-06-14T05:43:51;3.47;;;3.17;;
64426;SDS011;50772;51.482;-0.580;2023-06-14T05:46:16;4.18;;;3.17;;
64426;SDS011;50772;51.482;-0.580;2023-06-14T05:48:47;5.70;;;3.00;;
64426;SDS011;50772;51.482;-0.580;2023-06-14T05:51:12;4.50;;;3.35;;
64426;SDS011;50772;51.482;-0.580;2023-06-14T05:53:37;3.20;;;2.83;;
64426;SDS011;50772;51.482;-0.580;2023-06-14T05:56:02;3.60;;;2.93;;
64426;SDS011;50772;51.482;-0.580;2023-06-14T05:58:27;8.27;;;3.35;;
64426;SDS011;50772;51.482;-0.580;2023-06-14T06:00:53;4.80;;;3.53;;
64426;SDS011;50772;51.482;-0.580;2023-06-14T06:03:18;5.68;;;3.08;;
64426;SDS011;50772;51.482;-0.580;2023-06-14T06:05:43;7.27;;;3.50;;
64426;SDS011;50772;51.482;-0.580;2023-06-14T06:08:08;5.93;;;3.40;;
64426;SDS011;50772;51.482;-0.580;2023-06-14T06:10:34;7.27;;;3.53;;
64426;SDS011;50772;51.482;-0.580;2023-06-14T06:12:59;6.50;;;3.22;;
64426;SDS011;50772;51.482;-0.580;2023-06-14T06:15:24;6.63;;;3.33;;
64426;SDS011;50772;51.482;-0.580;2023-06-14T06:17:50;5.93;;;3.00;;
64426;SDS011;50772;51.482;-0.580;2023-06-14T06:20:16;5.95;;;3.33;;
64426;SDS011;50772;51.482;-0.580;2023-06-14T06:22:42;9.70;;;3.10;;
64426;SDS011;50772;51.482;-0.580;2023-06-14T06:25:07;6.57;;;3.05;;
64426;SDS011;50772;51.482;-0.580;2023-06-14T06:27:33;3.35;;;2.80;;
64426;SDS011;50772;51.482;-0.580;2023-06-14T06:29:59;8.52;;;3.40;;
64426;SDS011;50772;51.482;-0.580;2023-06-14T06:32:24;5.60;;;3.20;;
64426;SDS011;50772;51.482;-0.580;2023-06-14T06:34:50;3.95;;;2.88;;
64426;SDS011;50772;51.482;-0.580;2023-06-14T06:37:15;6.45;;;2.83;;
64426;SDS011;50772;51.482;-0.580;2023-06-14T06:39:40;4.33;;;3.07;;
64426;SDS011;50772;51.482;-0.580;2023-06-14T06:42:05;3.73;;;2.43;;
64426;SDS011;50772;51.482;-0.580;2023-06-14T06:44:31;3.40;;;2.85;;
64426;SDS011;50772;51.482;-0.580;2023-06-14T06:46:57;4.72;;;2.85;;
64426;SDS011;50772;51.482;-0.580;2023-06-14T06:49:22;3.03;;;2.50;;
64426;SDS011;50772;51.482;-0.580;2023-06-14T06:52:04;3.42;;;2.80;;
64426;SDS011;50772;51.482;-0.580;2023-06-14T06:54:29;3.92;;;2.88;;
64426;SDS011;50772;51.482;-0.580;2023-06-14T06:56:55;8.98;;;3.10;;
64426;SDS011;50772;51.482;-0.580;2023-06-14T06:59:21;3.03;;;2.45;;
64426;SDS011;50772;51.482;-0.580;2023-06-14T07:01:46;6.28;;;2.75;;
64426;SDS011;50772;51.482;-0.580;2023-06-14T07:04:12;4.45;;;2.85;;
64426;SDS011;50772;51.482;-0.580;2023-06-14T07:06:37;3.78;;;2.83;;
64426;SDS011;50772;51.482;-0.580;2023-06-14T07:09:03;6.70;;;2.55;;
64426;SDS011;50772;51.482;-0.580;2023-06-14T07:11:30;5.20;;;2.47;;
64426;SDS011;50772;51.482;-0.580;2023-06-14T07:13:55;5.20;;;2.50;;
64426;SDS011;50772;51.482;-0.580;2023-06-14T07:16:20;3.83;;;2.30;;
64426;SDS011;50772;51.482;-0.580;2023-06-14T07:18:45;6.13;;;2.33;;
64426;SDS011;50772;51.482;-0.580;2023-06-14T07:21:10;4.77;;;2.50;;
64426;SDS011;50772;51.482;-0.580;2023-06-14T07:23:36;6.20;;;2.60;;
64426;SDS011;50772;51.482;-0.580;2023-06-14T07:26:01;2.80;;;2.17;;
64426;SDS011;50772;51.482;-0.580;2023-06-14T07:28:26;3.27;;;2.57;;
64426;SDS011;50772;51.482;-0.580;2023-06-14T07:30:51;2.97;;;2.67;;
64426;SDS011;50772;51.482;-0.580;2023-06-14T07:33:17;2.90;;;2.70;;
64426;SDS011;50772;51.482;-0.580;2023-06-14T07:35:42;6.37;;;2.67;;
64426;SDS011;50772;51.482;-0.580;2023-06-14T07:38:07;2.92;;;2.65;;
64426;SDS011;50772;51.482;-0.580;2023-06-14T07:40:32;2.97;;;2.67;;
64426;SDS011;50772;51.482;-0.580;2023-06-14T07:42:58;5.05;;;2.55;;
64426;SDS011;50772;51.482;-0.580;2023-06-14T07:45:23;6.10;;;2.80;;
64426;SDS011;50772;51.482;-0.580;2023-06-14T07:47:48;6.33;;;2.90;;
64426;SDS011;50772;51.482;-0.580;2023-06-14T07:50:13;3.63;;;2.40;;
64426;SDS011;50772;51.482;-0.580;2023-06-14T07:52:39;3.53;;;2.97;;
64426;SDS011;50772;51.482;-0.580;2023-06-14T07:55:04;3.13;;;2.58;;
64426;SDS011;50772;51.482;-0.580;2023-06-14T07:57:30;7.30;;;2.70;;
64426;SDS011;50772;51.482;-0.580;2023-06-14T07:59:55;11.10;;;2.47;;
64426;SDS011;50772;51.482;-0.580;2023-06-14T08:02:20;2.60;;;2.33;;
64426;SDS011;50772;51.482;-0.580;2023-06-14T08:04:45;6.07;;;2.87;;
64426;SDS011;50772;51.482;-0.580;2023-06-14T08:07:13;3.50;;;2.53;;
64426;SDS011;50772;51.482;-0.580;2023-06-14T08:09:38;5.75;;;2.42;;
64426;SDS011;50772;51.482;-0.580;2023-06-14T08:12:04;6.00;;;2.60;;
64426;SDS011;50772;51.482;-0.580;2023-06-14T08:14:32;6.25;;;2.47;;
64426;SDS011;50772;51.482;-0.580;2023-06-14T08:16:57;9.03;;;2.80;;
64426;SDS011;50772;51.482;-0.580;2023-06-14T08:19:22;2.53;;;2.30;;
64426;SDS011;50772;51.482;-0.580;2023-06-14T08:21:48;3.17;;;2.83;;
64426;SDS011;50772;51.482;-0.580;2023-06-14T08:24:13;3.78;;;2.40;;
64426;SDS011;50772;51.482;-0.580;2023-06-14T08:26:39;7.30;;;2.85;;
64426;SDS011;50772;51.482;-0.580;2023-06-14T08:29:04;3.03;;;2.50;;
64426;SDS011;50772;51.482;-0.580;2023-06-14T08:31:30;4.80;;;2.80;;
64426;SDS011;50772;51.482;-0.580;2023-06-14T08:33:56;9.95;;;2.70;;
64426;SDS011;50772;51.482;-0.580;2023-06-14T08:36:22;2.73;;;2.53;;
64426;SDS011;50772;51.482;-0.580;2023-06-14T08:38:47;6.15;;;3.15;;
64426;SDS011;50772;51.482;-0.580;2023-06-14T08:41:13;4.35;;;2.78;;
64426;SDS011;50772;51.482;-0.580;2023-06-14T08:43:50;3.92;;;2.75;;
64426;SDS011;50772;51.482;-0.580;2023-06-14T08:46:17;5.15;;;2.85;;
64426;SDS011;50772;51.482;-0.580;2023-06-14T08:48:44;3.97;;;2.38;;
64426;SDS011;50772;51.482;-0.580;2023-06-14T08:51:09;9.73;;;2.93;;
64426;SDS011;50772;51.482;-0.580;2023-06-14T08:53:35;7.38;;;2.90;;
64426;SDS011;50772;51.482;-0.580;2023-06-14T08:56:01;4.63;;;2.45;;
64426;SDS011;50772;51.482;-0.580;2023-06-14T08:58:27;3.10;;;2.60;;
64426;SDS011;50772;51.482;-0.580;2023-06-14T09:00:54;5.38;;;2.72;;
64426;SDS011;50772;51.482;-0.580;2023-06-14T09:03:20;8.43;;;2.58;;
64426;SDS011;50772;51.482;-0.580;2023-06-14T09:05:46;3.25;;;2.92;;
64426;SDS011;50772;51.482;-0.580;2023-06-14T09:08:11;6.35;;;2.90;;
64426;SDS011;50772;51.482;-0.580;2023-06-14T09:10:37;3.75;;;2.75;;
64426;SDS011;50772;51.482;-0.580;2023-06-14T09:13:02;4.33;;;2.57;;
64426;SDS011;50772;51.482;-0.580;2023-06-14T09:15:28;3.97;;;2.67;;
64426;SDS011;50772;51.482;-0.580;2023-06-14T09:17:53;4.32;;;2.72;;
64426;SDS011;50772;51.482;-0.580;2023-06-14T09:20:18;7.73;;;2.87;;
64426;SDS011;50772;51.482;-0.580;2023-06-14T09:22:44;2.92;;;2.50;;
64426;SDS011;50772;51.482;-0.580;2023-06-14T09:25:09;11.38;;;4.22;;
64426;SDS011;50772;51.482;-0.580;2023-06-14T09:27:35;4.65;;;3.10;;
64426;SDS011;50772;51.482;-0.580;2023-06-14T09:30:01;8.30;;;2.85;;
64426;SDS011;50772;51.482;-0.580;2023-06-14T09:32:26;5.00;;;2.95;;
64426;SDS011;50772;51.482;-0.580;2023-06-14T09:34:52;7.43;;;2.97;;
64426;SDS011;50772;51.482;-0.580;2023-06-14T09:37:39;3.42;;;2.92;;
64426;SDS011;50772;51.482;-0.580;2023-06-14T09:40:04;6.35;;;2.63;;
64426;SDS011;50772;51.482;-0.580;2023-06-14T09:42:29;3.33;;;2.70;;
64426;SDS011;50772;51.482;-0.580;2023-06-14T09:44:55;3.90;;;3.00;;
64426;SDS011;50772;51.482;-0.580;2023-06-14T09:47:21;3.15;;;2.85;;
64426;SDS011;50772;51.482;-0.580;2023-06-14T09:49:47;8.75;;;2.90;;
64426;SDS011;50772;51.482;-0.580;2023-06-14T09:52:18;4.88;;;2.78;;
64426;SDS011;50772;51.482;-0.580;2023-06-14T09:54:45;5.75;;;3.25;;
64426;SDS011;50772;51.482;-0.580;2023-06-14T09:57:20;7.20;;;2.55;;
64426;SDS011;50772;51.482;-0.580;2023-06-14T09:59:46;2.92;;;2.67;;
64426;SDS011;50772;51.482;-0.580;2023-06-14T10:02:21;5.65;;;3.20;;
64426;SDS011;50772;51.482;-0.580;2023-06-14T10:04:49;6.97;;;2.70;;
64426;SDS011;50772;51.482;-0.580;2023-06-14T10:07:18;7.35;;;2.95;;
64426;SDS011;50772;51.482;-0.580;2023-06-14T10:09:44;4.03;;;3.25;;
64426;SDS011;50772;51.482;-0.580;2023-06-14T10:12:14;2.72;;;2.53;;
64426;SDS011;50772;51.482;-0.580;2023-06-14T10:14:45;7.35;;;3.30;;
64426;SDS011;50772;51.482;-0.580;2023-06-14T10:17:12;4.00;;;2.92;;
64426;SDS011;50772;51.482;-0.580;2023-06-14T10:19:50;2.92;;;2.72;;
64426;SDS011;50772;51.482;-0.580;2023-06-14T10:22:19;5.32;;;2.75;;
64426;SDS011;50772;51.482;-0.580;2023-06-14T10:24:48;4.15;;;2.80;;
64426;SDS011;50772;51.482;-0.580;2023-06-14T10:27:15;3.05;;;2.60;;
64426;SDS011;50772;51.482;-0.580;2023-06-14T10:32:26;4.88;;;2.70;;
64426;SDS011;50772;51.482;-0.580;2023-06-14T10:34:57;4.38;;;2.83;;
64426;SDS011;50772;51.482;-0.580;2023-06-14T10:37:22;4.10;;;2.78;;
64426;SDS011;50772;51.482;-0.580;2023-06-14T10:39:47;3.23;;;2.60;;
64426;SDS011;50772;51.482;-0.580;2023-06-14T10:42:13;3.47;;;3.07;;
64426;SDS011;50772;51.482;-0.580;2023-06-14T10:47:20;5.15;;;2.85;;
64426;SDS011;50772;51.482;-0.580;2023-06-14T10:49:52;5.05;;;2.60;;
64426;SDS011;50772;51.482;-0.580;2023-06-14T10:57:24;3.13;;;2.90;;
64426;SDS011;50772;51.482;-0.580;2023-06-14T10:59:49;4.75;;;2.53;;
64426;SDS011;50772;51.482;-0.580;2023-06-14T11:02:37;6.13;;;3.40;;
64426;SDS011;50772;51.482;-0.580;2023-06-14T11:05:10;3.92;;;2.85;;
64426;SDS011;50772;51.482;-0.580;2023-06-14T11:12:31;5.20;;;3.38;;
64426;SDS011;50772;51.482;-0.580;2023-06-14T11:14:56;3.38;;;3.15;;
64426;SDS011;50772;51.482;-0.580;2023-06-14T11:17:22;3.77;;;2.87;;
64426;SDS011;50772;51.482;-0.580;2023-06-14T11:19:47;4.33;;;3.13;;
64426;SDS011;50772;51.482;-0.580;2023-06-14T11:22:12;3.03;;;2.83;;
64426;SDS011;50772;51.482;-0.580;2023-06-14T11:24:39;5.35;;;3.35;;
64426;SDS011;50772;51.482;-0.580;2023-06-14T11:27:05;8.43;;;3.47;;
64426;SDS011;50772;51.482;-0.580;2023-06-14T11:29:31;4.15;;;3.42;;
64426;SDS011;50772;51.482;-0.580;2023-06-14T11:31:56;4.67;;;4.23;;
64426;SDS011;50772;51.482;-0.580;2023-06-14T11:34:22;3.30;;;3.00;;
64426;SDS011;50772;51.482;-0.580;2023-06-14T11:36:47;3.37;;;3.10;;
64426;SDS011;50772;51.482;-0.580;2023-06-14T11:39:12;3.35;;;3.08;;
64426;SDS011;50772;51.482;-0.580;2023-06-14T11:41:39;3.08;;;2.88;;
64426;SDS011;50772;51.482;-0.580;2023-06-14T11:44:05;5.55;;;3.40;;
64426;SDS011;50772;51.482;-0.580;2023-06-14T11:46:30;5.68;;;3.25;;
64426;SDS011;50772;51.482;-0.580;2023-06-14T11:48:56;3.67;;;3.20;;
64426;SDS011;50772;51.482;-0.580;2023-06-14T11:51:21;6.63;;;3.20;;
64426;SDS011;50772;51.482;-0.580;2023-06-14T11:53:46;4.93;;;4.22;;
64426;SDS011;50772;51.482;-0.580;2023-06-14T11:56:12;4.80;;;3.30;;
64426;SDS011;50772;51.482;-0.580;2023-06-14T11:58:37;3.40;;;3.10;;
64426;SDS011;50772;51.482;-0.580;2023-06-14T12:01:03;4.83;;;3.17;;
64426;SDS011;50772;51.482;-0.580;2023-06-14T12:03:28;4.10;;;3.08;;
64426;SDS011;50772;51.482;-0.580;2023-06-14T12:06:06;3.22;;;2.88;;
64426;SDS011;50772;51.482;-0.580;2023-06-14T12:08:35;4.18;;;3.10;;
64426;SDS011;50772;51.482;-0.580;2023-06-14T12:11:06;13.90;;;3.72;;
64426;SDS011;50772;51.482;-0.580;2023-06-14T12:13:37;4.70;;;2.97;;
64426;SDS011;50772;51.482;-0.580;2023-06-14T12:16:02;3.25;;;3.05;;
64426;SDS011;50772;51.482;-0.580;2023-06-14T12:18:31;8.55;;;3.22;;
64426;SDS011;50772;51.482;-0.580;2023-06-14T12:20:58;3.25;;;3.03;;
64426;SDS011;50772;51.482;-0.580;2023-06-14T12:23:27;3.55;;;3.20;;
64426;SDS011;50772;51.482;-0.580;2023-06-14T12:26:03;3.63;;;3.30;;
64426;SDS011;50772;51.482;-0.580;2023-06-14T12:28:30;3.65;;;3.45;;
64426;SDS011;50772;51.482;-0.580;2023-06-14T12:30:56;6.03;;;3.28;;
64426;SDS011;50772;51.482;-0.580;2023-06-14T12:33:23;5.25;;;3.55;;
64426;SDS011;50772;51.482;-0.580;2023-06-14T12:35:49;3.67;;;3.40;;
64426;SDS011;50772;51.482;-0.580;2023-06-14T12:38:15;3.63;;;3.33;;
64426;SDS011;50772;51.482;-0.580;2023-06-14T12:40:41;5.22;;;3.70;;
64426;SDS011;50772;51.482;-0.580;2023-06-14T12:43:07;5.95;;;3.47;;
64426;SDS011;50772;51.482;-0.580;2023-06-14T12:45:32;3.40;;;3.20;;
64426;SDS011;50772;51.482;-0.580;2023-06-14T12:47:57;8.40;;;3.10;;
64426;SDS011;50772;51.482;-0.580;2023-06-14T12:50:23;3.70;;;3.50;;
64426;SDS011;50772;51.482;-0.580;2023-06-14T12:52:48;3.47;;;3.27;;
64426;SDS011;50772;51.482;-0.580;2023-06-14T12:55:13;7.60;;;3.80;;
64426;SDS011;50772;51.482;-0.580;2023-06-14T12:57:39;4.22;;;3.28;;
64426;SDS011;50772;51.482;-0.580;2023-06-14T13:00:05;5.78;;;3.40;;
64426;SDS011;50772;51.482;-0.580;2023-06-14T13:02:32;4.53;;;3.33;;
64426;SDS011;50772;51.482;-0.580;2023-06-14T13:04:57;3.60;;;3.40;;
64426;SDS011;50772;51.482;-0.580;2023-06-14T13:07:23;4.63;;;3.22;;
64426;SDS011;50772;51.482;-0.580;2023-06-14T13:09:49;8.05;;;3.15;;
64426;SDS011;50772;51.482;-0.580;2023-06-14T13:12:14;6.23;;;3.43;;
64426;SDS011;50772;51.482;-0.580;2023-06-14T13:14:40;4.33;;;3.40;;
64426;SDS011;50772;51.482;-0.580;2023-06-14T13:17:08;3.67;;;3.42;;
64426;SDS011;50772;51.482;-0.580;2023-06-14T13:19:34;9.00;;;3.67;;
64426;SDS011;50772;51.482;-0.580;2023-06-14T13:22:00;4.28;;;3.05;;
64426;SDS011;50772;51.482;-0.580;2023-06-14T13:24:25;5.27;;;3.53;;
64426;SDS011;50772;51.482;-0.580;2023-06-14T13:26:50;3.75;;;3.10;;
64426;SDS011;50772;51.482;-0.580;2023-06-14T13:29:15;3.60;;;3.37;;
64426;SDS011;50772;51.482;-0.580;2023-06-14T13:31:41;6.22;;;3.35;;
64426;SDS011;50772;51.482;-0.580;2023-06-14T13:34:06;3.78;;;3.47;;
64426;SDS011;50772;51.482;-0.580;2023-06-14T13:36:31;4.10;;;3.30;;
64426;SDS011;50772;51.482;-0.580;2023-06-14T13:38:57;4.90;;;3.50;;
64426;SDS011;50772;51.482;-0.580;2023-06-14T13:41:23;5.63;;;3.40;;
64426;SDS011;50772;51.482;-0.580;2023-06-14T13:43:49;4.95;;;3.88;;
64426;SDS011;50772;51.482;-0.580;2023-06-14T13:46:14;6.82;;;3.70;;
64426;SDS011;50772;51.482;-0.580;2023-06-14T13:48:39;3.57;;;3.20;;
64426;SDS011;50772;51.482;-0.580;2023-06-14T13:51:05;3.33;;;3.13;;
64426;SDS011;50772;51.482;-0.580;2023-06-14T13:53:30;3.50;;;3.30;;
64426;SDS011;50772;51.482;-0.580;2023-06-14T13:55:56;5.68;;;3.30;;
64426;SDS011;50772;51.482;-0.580;2023-06-14T13:58:21;4.23;;;3.60;;
64426;SDS011;50772;51.482;-0.580;2023-06-14T14:00:46;15.07;;;3.47;;
64426;SDS011;50772;51.482;-0.580;2023-06-14T14:03:12;3.75;;;3.38;;
64426;SDS011;50772;51.482;-0.580;2023-06-14T14:05:37;3.40;;;3.20;;
64426;SDS011;50772;51.482;-0.580;2023-06-14T14:08:03;4.43;;;3.17;;
64426;SDS011;50772;51.482;-0.580;2023-06-14T14:10:28;4.68;;;3.40;;
64426;SDS011;50772;51.482;-0.580;2023-06-14T14:12:54;3.60;;;3.30;;
64426;SDS011;50772;51.482;-0.580;2023-06-14T14:15:19;3.33;;;2.95;;
64426;SDS011;50772;51.482;-0.580;2023-06-14T14:17:45;4.40;;;3.47;;
64426;SDS011;50772;51.482;-0.580;2023-06-14T14:20:10;3.58;;;3.28;;
64426;SDS011;50772;51.482;-0.580;2023-06-14T14:22:37;3.33;;;3.13;;
64426;SDS011;50772;51.482;-0.580;2023-06-14T14:25:03;3.60;;;3.30;;
64426;SDS011;50772;51.482;-0.580;2023-06-14T14:27:28;3.63;;;3.23;;
64426;SDS011;50772;51.482;-0.580;2023-06-14T14:29:53;4.05;;;3.22;;
64426;SDS011;50772;51.482;-0.580;2023-06-14T14:32:18;7.17;;;3.57;;
64426;SDS011;50772;51.482;-0.580;2023-06-14T14:34:44;3.30;;;3.10;;
64426;SDS011;50772;51.482;-0.580;2023-06-14T14:37:09;3.30;;;3.10;;
64426;SDS011;50772;51.482;-0.580;2023-06-14T14:39:34;3.55;;;3.30;;
64426;SDS011;50772;51.482;-0.580;2023-06-14T14:41:59;3.60;;;3.40;;
64426;SDS011;50772;51.482;-0.580;2023-06-14T14:44:25;3.50;;;3.30;;
64426;SDS011;50772;51.482;-0.580;2023-06-14T14:46:50;3.70;;;3.50;;
64426;SDS011;50772;51.482;-0.580;2023-06-14T14:49:15;3.37;;;3.20;;